sensor_id;sensor_type;location;lat;lon;timestamp;P1;durP1;ratioP1;P2;durP2;ratioP2
35699;SDS011;21818;51.078;12.108;2022-11-20T00:02:20;18.63;;;8.95;;
35699;SDS011;21818;51.078;12.108;2022-11-20T00:04:46;18.10;;;9.35;;
35699;SDS011;21818;51.078;12.108;2022-11-20T00:07:11;17.38;;;8.77;;
35699;SDS011;21818;51.078;12.108;2022-11-20T00:09:37;16.27;;;8.95;;
35699;SDS011;21818;51.078;12.108;2022-11-20T00:12:03;17.90;;;8.82;;
35699;SDS011;21818;51.078;12.108;2022-11-20T00:14:28;18.38;;;9.60;;
35699;SDS011;21818;51.078;12.108;2022-11-20T00:16:54;18.25;;;9.38;;
35699;SDS011;21818;51.078;12.108;2022-11-20T00:19:19;19.02;;;9.65;;
35699;SDS011;21818;51.078;12.108;2022-11-20T00:21:45;17.15;;;9.15;;
35699;SDS011;21818;51.078;12.108;2022-11-20T00:24:11;17.83;;;9.65;;
35699;SDS011;21818;51.078;12.108;2022-11-20T00:26:36;18.02;;;8.82;;
35699;SDS011;21818;51.078;12.108;2022-11-20T00:29:02;19.33;;;9.07;;
35699;SDS011;21818;51.078;12.108;2022-11-20T00:31:28;19.40;;;8.93;;
35699;SDS011;21818;51.078;12.108;2022-11-20T00:33:55;21.90;;;9.45;;
35699;SDS011;21818;51.078;12.108;2022-11-20T00:36:21;17.83;;;8.80;;
35699;SDS011;21818;51.078;12.108;2022-11-20T00:38:52;17.98;;;9.15;;
35699;SDS011;21818;51.078;12.108;2022-11-20T00:41:19;19.15;;;9.32;;
35699;SDS011;21818;51.078;12.108;2022-11-20T00:43:44;19.15;;;10.00;;
35699;SDS011;21818;51.078;12.108;2022-11-20T00:46:12;17.75;;;8.88;;
35699;SDS011;21818;51.078;12.108;2022-11-20T00:48:39;17.77;;;9.77;;
35699;SDS011;21818;51.078;12.108;2022-11-20T00:51:05;18.58;;;9.38;;
35699;SDS011;21818;51.078;12.108;2022-11-20T00:53:31;19.10;;;9.70;;
35699;SDS011;21818;51.078;12.108;2022-11-20T00:55:59;21.65;;;11.48;;
35699;SDS011;21818;51.078;12.108;2022-11-20T00:58:33;17.30;;;9.75;;
35699;SDS011;21818;51.078;12.108;2022-11-20T01:01:04;19.35;;;9.77;;
35699;SDS011;21818;51.078;12.108;2022-11-20T01:03:35;22.40;;;9.57;;
35699;SDS011;21818;51.078;12.108;2022-11-20T01:06:03;16.98;;;8.55;;
35699;SDS011;21818;51.078;12.108;2022-11-20T01:08:31;20.73;;;9.55;;
35699;SDS011;21818;51.078;12.108;2022-11-20T01:11:02;21.23;;;9.88;;
35699;SDS011;21818;51.078;12.108;2022-11-20T01:13:30;21.20;;;9.65;;
35699;SDS011;21818;51.078;12.108;2022-11-20T01:16:03;18.10;;;9.82;;
35699;SDS011;21818;51.078;12.108;2022-11-20T01:18:35;19.33;;;9.68;;
35699;SDS011;21818;51.078;12.108;2022-11-20T01:21:07;18.92;;;9.52;;
35699;SDS011;21818;51.078;12.108;2022-11-20T01:23:35;15.15;;;8.65;;
35699;SDS011;21818;51.078;12.108;2022-11-20T01:26:03;17.88;;;9.65;;
35699;SDS011;21818;51.078;12.108;2022-11-20T01:28:30;22.08;;;9.82;;
35699;SDS011;21818;51.078;12.108;2022-11-20T01:30:56;18.98;;;9.38;;
35699;SDS011;21818;51.078;12.108;2022-11-20T01:33:22;17.02;;;9.07;;
35699;SDS011;21818;51.078;12.108;2022-11-20T01:35:48;22.92;;;10.15;;
35699;SDS011;21818;51.078;12.108;2022-11-20T01:38:14;19.30;;;8.80;;
35699;SDS011;21818;51.078;12.108;2022-11-20T01:40:40;19.80;;;10.18;;
35699;SDS011;21818;51.078;12.108;2022-11-20T01:43:12;17.92;;;9.82;;
35699;SDS011;21818;51.078;12.108;2022-11-20T01:48:38;17.58;;;9.88;;
35699;SDS011;21818;51.078;12.108;2022-11-20T01:51:15;19.33;;;10.20;;
35699;SDS011;21818;51.078;12.108;2022-11-20T01:53:52;22.08;;;11.55;;
35699;SDS011;21818;51.078;12.108;2022-11-20T01:56:20;18.85;;;9.75;;
35699;SDS011;21818;51.078;12.108;2022-11-20T01:58:48;22.98;;;10.23;;
35699;SDS011;21818;51.078;12.108;2022-11-20T02:01:18;19.77;;;10.07;;
35699;SDS011;21818;51.078;12.108;2022-11-20T02:03:45;20.50;;;9.43;;
35699;SDS011;21818;51.078;12.108;2022-11-20T02:09:10;19.83;;;9.00;;
35699;SDS011;21818;51.078;12.108;2022-11-20T02:11:36;18.63;;;9.52;;
35699;SDS011;21818;51.078;12.108;2022-11-20T02:14:02;21.13;;;10.65;;
35699;SDS011;21818;51.078;12.108;2022-11-20T02:16:29;20.75;;;10.20;;
35699;SDS011;21818;51.078;12.108;2022-11-20T02:18:59;20.38;;;9.98;;
35699;SDS011;21818;51.078;12.108;2022-11-20T02:24:20;19.42;;;9.93;;
35699;SDS011;21818;51.078;12.108;2022-11-20T02:26:55;21.63;;;10.20;;
35699;SDS011;21818;51.078;12.108;2022-11-20T02:29:34;18.08;;;9.50;;
35699;SDS011;21818;51.078;12.108;2022-11-20T02:32:00;18.80;;;9.80;;
35699;SDS011;21818;51.078;12.108;2022-11-20T02:34:27;19.45;;;9.60;;
35699;SDS011;21818;51.078;12.108;2022-11-20T02:36:53;22.85;;;11.40;;
35699;SDS011;21818;51.078;12.108;2022-11-20T02:39:20;17.48;;;9.93;;
35699;SDS011;21818;51.078;12.108;2022-11-20T02:41:49;17.52;;;9.70;;
35699;SDS011;21818;51.078;12.108;2022-11-20T02:44:17;20.77;;;10.25;;
35699;SDS011;21818;51.078;12.108;2022-11-20T02:46:42;21.33;;;10.45;;
35699;SDS011;21818;51.078;12.108;2022-11-20T02:49:08;18.80;;;10.35;;
35699;SDS011;21818;51.078;12.108;2022-11-20T02:51:33;21.95;;;9.98;;
35699;SDS011;21818;51.078;12.108;2022-11-20T02:53:59;22.00;;;10.73;;
35699;SDS011;21818;51.078;12.108;2022-11-20T02:56:25;21.08;;;10.82;;
35699;SDS011;21818;51.078;12.108;2022-11-20T02:58:50;23.23;;;12.10;;
35699;SDS011;21818;51.078;12.108;2022-11-20T03:01:16;23.90;;;12.55;;
35699;SDS011;21818;51.078;12.108;2022-11-20T03:03:42;26.42;;;11.32;;
35699;SDS011;21818;51.078;12.108;2022-11-20T03:06:07;23.88;;;11.35;;
35699;SDS011;21818;51.078;12.108;2022-11-20T03:08:33;23.55;;;11.02;;
35699;SDS011;21818;51.078;12.108;2022-11-20T03:11:05;21.38;;;10.70;;
35699;SDS011;21818;51.078;12.108;2022-11-20T03:13:32;20.92;;;10.52;;
35699;SDS011;21818;51.078;12.108;2022-11-20T03:16:04;19.52;;;10.50;;
35699;SDS011;21818;51.078;12.108;2022-11-20T03:18:33;24.98;;;11.52;;
35699;SDS011;21818;51.078;12.108;2022-11-20T03:20:59;21.92;;;11.45;;
35699;SDS011;21818;51.078;12.108;2022-11-20T03:23:25;22.33;;;11.02;;
35699;SDS011;21818;51.078;12.108;2022-11-20T03:25:50;19.75;;;10.02;;
35699;SDS011;21818;51.078;12.108;2022-11-20T03:28:16;21.33;;;11.02;;
35699;SDS011;21818;51.078;12.108;2022-11-20T03:30:42;19.48;;;10.32;;
35699;SDS011;21818;51.078;12.108;2022-11-20T03:33:07;18.65;;;9.95;;
35699;SDS011;21818;51.078;12.108;2022-11-20T03:35:33;20.42;;;10.13;;
35699;SDS011;21818;51.078;12.108;2022-11-20T03:37:58;18.88;;;9.75;;
35699;SDS011;21818;51.078;12.108;2022-11-20T03:40:24;18.42;;;9.68;;
35699;SDS011;21818;51.078;12.108;2022-11-20T03:42:50;17.88;;;10.02;;
35699;SDS011;21818;51.078;12.108;2022-11-20T03:45:16;22.33;;;10.52;;
35699;SDS011;21818;51.078;12.108;2022-11-20T03:47:43;20.88;;;10.05;;
35699;SDS011;21818;51.078;12.108;2022-11-20T03:50:10;26.27;;;11.25;;
35699;SDS011;21818;51.078;12.108;2022-11-20T03:52:40;20.20;;;10.20;;
35699;SDS011;21818;51.078;12.108;2022-11-20T03:55:06;21.92;;;10.27;;
35699;SDS011;21818;51.078;12.108;2022-11-20T03:57:32;19.55;;;9.60;;
35699;SDS011;21818;51.078;12.108;2022-11-20T03:59:58;21.13;;;10.73;;
35699;SDS011;21818;51.078;12.108;2022-11-20T04:02:23;18.25;;;10.30;;
35699;SDS011;21818;51.078;12.108;2022-11-20T04:04:49;22.60;;;11.00;;
35699;SDS011;21818;51.078;12.108;2022-11-20T04:07:15;20.90;;;10.93;;
35699;SDS011;21818;51.078;12.108;2022-11-20T04:09:40;23.60;;;11.57;;
35699;SDS011;21818;51.078;12.108;2022-11-20T04:12:06;24.45;;;11.85;;
35699;SDS011;21818;51.078;12.108;2022-11-20T04:14:31;21.27;;;11.35;;
35699;SDS011;21818;51.078;12.108;2022-11-20T04:16:57;28.25;;;12.13;;
35699;SDS011;21818;51.078;12.108;2022-11-20T04:19:22;19.30;;;10.02;;
35699;SDS011;21818;51.078;12.108;2022-11-20T04:21:48;20.25;;;11.18;;
35699;SDS011;21818;51.078;12.108;2022-11-20T04:24:14;19.52;;;10.35;;
35699;SDS011;21818;51.078;12.108;2022-11-20T04:26:39;22.90;;;10.48;;
35699;SDS011;21818;51.078;12.108;2022-11-20T04:29:05;24.55;;;10.77;;
35699;SDS011;21818;51.078;12.108;2022-11-20T04:31:32;20.30;;;9.95;;
35699;SDS011;21818;51.078;12.108;2022-11-20T04:34:00;20.63;;;11.00;;
35699;SDS011;21818;51.078;12.108;2022-11-20T04:38:56;21.20;;;10.75;;
35699;SDS011;21818;51.078;12.108;2022-11-20T04:41:27;23.20;;;11.70;;
35699;SDS011;21818;51.078;12.108;2022-11-20T04:43:56;21.08;;;11.00;;
35699;SDS011;21818;51.078;12.108;2022-11-20T04:46:28;24.10;;;11.32;;
35699;SDS011;21818;51.078;12.108;2022-11-20T04:48:55;21.35;;;10.35;;
35699;SDS011;21818;51.078;12.108;2022-11-20T04:51:21;20.30;;;10.38;;
35699;SDS011;21818;51.078;12.108;2022-11-20T04:53:47;21.67;;;10.77;;
35699;SDS011;21818;51.078;12.108;2022-11-20T04:56:13;19.88;;;10.05;;
35699;SDS011;21818;51.078;12.108;2022-11-20T04:58:39;18.90;;;10.68;;
35699;SDS011;21818;51.078;12.108;2022-11-20T05:01:06;18.30;;;9.90;;
35699;SDS011;21818;51.078;12.108;2022-11-20T05:03:34;19.75;;;11.13;;
35699;SDS011;21818;51.078;12.108;2022-11-20T05:06:00;21.40;;;10.80;;
35699;SDS011;21818;51.078;12.108;2022-11-20T05:08:26;20.17;;;9.90;;
35699;SDS011;21818;51.078;12.108;2022-11-20T05:10:53;20.40;;;9.32;;
35699;SDS011;21818;51.078;12.108;2022-11-20T05:13:18;20.15;;;10.57;;
35699;SDS011;21818;51.078;12.108;2022-11-20T05:15:44;24.55;;;11.13;;
35699;SDS011;21818;51.078;12.108;2022-11-20T05:18:09;19.33;;;9.80;;
35699;SDS011;21818;51.078;12.108;2022-11-20T05:20:35;19.20;;;9.80;;
35699;SDS011;21818;51.078;12.108;2022-11-20T05:23:01;21.77;;;10.27;;
35699;SDS011;21818;51.078;12.108;2022-11-20T05:25:27;20.30;;;10.82;;
35699;SDS011;21818;51.078;12.108;2022-11-20T05:27:53;19.17;;;9.45;;
35699;SDS011;21818;51.078;12.108;2022-11-20T05:30:18;19.10;;;10.70;;
35699;SDS011;21818;51.078;12.108;2022-11-20T05:32:44;19.15;;;9.25;;
35699;SDS011;21818;51.078;12.108;2022-11-20T05:35:10;23.58;;;11.45;;
35699;SDS011;21818;51.078;12.108;2022-11-20T05:37:35;20.60;;;10.80;;
35699;SDS011;21818;51.078;12.108;2022-11-20T05:40:01;17.85;;;9.95;;
35699;SDS011;21818;51.078;12.108;2022-11-20T05:42:29;20.50;;;10.25;;
35699;SDS011;21818;51.078;12.108;2022-11-20T05:44:56;21.00;;;10.50;;
35699;SDS011;21818;51.078;12.108;2022-11-20T05:47:26;22.13;;;10.68;;
35699;SDS011;21818;51.078;12.108;2022-11-20T05:49:52;21.85;;;10.88;;
35699;SDS011;21818;51.078;12.108;2022-11-20T05:52:19;19.45;;;10.00;;
35699;SDS011;21818;51.078;12.108;2022-11-20T05:54:45;20.15;;;10.10;;
35699;SDS011;21818;51.078;12.108;2022-11-20T05:57:10;18.27;;;9.32;;
35699;SDS011;21818;51.078;12.108;2022-11-20T05:59:36;20.23;;;10.55;;
35699;SDS011;21818;51.078;12.108;2022-11-20T06:02:02;19.48;;;9.90;;
35699;SDS011;21818;51.078;12.108;2022-11-20T06:04:27;19.30;;;10.35;;
35699;SDS011;21818;51.078;12.108;2022-11-20T06:06:53;21.48;;;11.13;;
35699;SDS011;21818;51.078;12.108;2022-11-20T06:09:18;19.40;;;10.20;;
35699;SDS011;21818;51.078;12.108;2022-11-20T06:11:44;18.23;;;9.45;;
35699;SDS011;21818;51.078;12.108;2022-11-20T06:14:10;21.63;;;10.88;;
35699;SDS011;21818;51.078;12.108;2022-11-20T06:16:35;20.83;;;10.82;;
35699;SDS011;21818;51.078;12.108;2022-11-20T06:19:01;20.67;;;10.63;;
35699;SDS011;21818;51.078;12.108;2022-11-20T06:21:26;21.75;;;10.45;;
35699;SDS011;21818;51.078;12.108;2022-11-20T06:23:52;20.60;;;10.77;;
35699;SDS011;21818;51.078;12.108;2022-11-20T06:26:27;20.38;;;10.32;;
35699;SDS011;21818;51.078;12.108;2022-11-20T06:28:53;19.20;;;9.65;;
35699;SDS011;21818;51.078;12.108;2022-11-20T06:31:21;18.00;;;9.90;;
35699;SDS011;21818;51.078;12.108;2022-11-20T06:33:49;18.40;;;9.95;;
35699;SDS011;21818;51.078;12.108;2022-11-20T06:36:16;19.15;;;10.52;;
35699;SDS011;21818;51.078;12.108;2022-11-20T06:38:43;18.30;;;9.35;;
35699;SDS011;21818;51.078;12.108;2022-11-20T06:41:13;17.95;;;10.18;;
35699;SDS011;21818;51.078;12.108;2022-11-20T06:43:43;20.95;;;9.32;;
35699;SDS011;21818;51.078;12.108;2022-11-20T06:46:10;19.48;;;9.70;;
35699;SDS011;21818;51.078;12.108;2022-11-20T06:48:37;16.92;;;9.95;;
35699;SDS011;21818;51.078;12.108;2022-11-20T06:51:04;16.25;;;8.38;;
35699;SDS011;21818;51.078;12.108;2022-11-20T06:53:30;18.02;;;8.23;;
35699;SDS011;21818;51.078;12.108;2022-11-20T06:55:56;12.85;;;6.95;;
35699;SDS011;21818;51.078;12.108;2022-11-20T06:58:28;13.40;;;6.88;;
35699;SDS011;21818;51.078;12.108;2022-11-20T07:00:59;13.25;;;7.22;;
35699;SDS011;21818;51.078;12.108;2022-11-20T07:03:32;15.63;;;8.20;;
35699;SDS011;21818;51.078;12.108;2022-11-20T07:05:58;12.27;;;7.07;;
35699;SDS011;21818;51.078;12.108;2022-11-20T07:08:26;13.27;;;6.75;;
35699;SDS011;21818;51.078;12.108;2022-11-20T07:10:52;12.70;;;6.90;;
35699;SDS011;21818;51.078;12.108;2022-11-20T07:13:18;11.15;;;6.82;;
35699;SDS011;21818;51.078;12.108;2022-11-20T07:15:43;13.13;;;6.82;;
35699;SDS011;21818;51.078;12.108;2022-11-20T07:18:09;11.40;;;6.90;;
35699;SDS011;21818;51.078;12.108;2022-11-20T07:20:35;14.88;;;7.00;;
35699;SDS011;21818;51.078;12.108;2022-11-20T07:23:00;9.25;;;6.15;;
35699;SDS011;21818;51.078;12.108;2022-11-20T07:25:26;14.38;;;7.47;;
35699;SDS011;21818;51.078;12.108;2022-11-20T07:27:56;10.23;;;6.25;;
35699;SDS011;21818;51.078;12.108;2022-11-20T07:30:25;11.30;;;6.30;;
35699;SDS011;21818;51.078;12.108;2022-11-20T07:32:51;12.48;;;6.82;;
35699;SDS011;21818;51.078;12.108;2022-11-20T07:35:17;9.75;;;6.20;;
35699;SDS011;21818;51.078;12.108;2022-11-20T07:37:43;11.77;;;6.15;;
35699;SDS011;21818;51.078;12.108;2022-11-20T07:40:11;12.40;;;6.75;;
35699;SDS011;21818;51.078;12.108;2022-11-20T07:42:37;10.98;;;6.13;;
35699;SDS011;21818;51.078;12.108;2022-11-20T07:45:02;10.82;;;6.18;;
35699;SDS011;21818;51.078;12.108;2022-11-20T07:47:28;8.32;;;5.20;;
35699;SDS011;21818;51.078;12.108;2022-11-20T07:49:59;10.55;;;5.88;;
35699;SDS011;21818;51.078;12.108;2022-11-20T07:52:24;9.90;;;5.82;;
35699;SDS011;21818;51.078;12.108;2022-11-20T07:54:50;10.23;;;5.20;;
35699;SDS011;21818;51.078;12.108;2022-11-20T07:57:16;8.70;;;5.90;;
35699;SDS011;21818;51.078;12.108;2022-11-20T07:59:41;9.35;;;6.13;;
35699;SDS011;21818;51.078;12.108;2022-11-20T08:02:09;8.85;;;5.45;;
35699;SDS011;21818;51.078;12.108;2022-11-20T08:04:35;9.35;;;4.90;;
35699;SDS011;21818;51.078;12.108;2022-11-20T08:07:01;9.52;;;5.35;;
35699;SDS011;21818;51.078;12.108;2022-11-20T08:09:27;9.05;;;5.25;;
35699;SDS011;21818;51.078;12.108;2022-11-20T08:11:53;7.85;;;4.63;;
35699;SDS011;21818;51.078;12.108;2022-11-20T08:14:38;11.23;;;5.95;;
35699;SDS011;21818;51.078;12.108;2022-11-20T08:17:04;10.07;;;4.93;;
35699;SDS011;21818;51.078;12.108;2022-11-20T08:19:29;7.80;;;5.03;;
35699;SDS011;21818;51.078;12.108;2022-11-20T08:21:55;7.60;;;4.30;;
35699;SDS011;21818;51.078;12.108;2022-11-20T08:24:21;8.70;;;5.05;;
35699;SDS011;21818;51.078;12.108;2022-11-20T08:26:46;7.95;;;5.13;;
35699;SDS011;21818;51.078;12.108;2022-11-20T08:29:12;7.43;;;4.65;;
35699;SDS011;21818;51.078;12.108;2022-11-20T08:31:37;9.27;;;4.70;;
35699;SDS011;21818;51.078;12.108;2022-11-20T08:34:03;7.28;;;4.25;;
35699;SDS011;21818;51.078;12.108;2022-11-20T08:36:29;11.70;;;5.63;;
35699;SDS011;21818;51.078;12.108;2022-11-20T08:38:58;8.73;;;4.80;;
35699;SDS011;21818;51.078;12.108;2022-11-20T08:41:24;8.98;;;5.00;;
35699;SDS011;21818;51.078;12.108;2022-11-20T08:43:54;7.32;;;4.82;;
35699;SDS011;21818;51.078;12.108;2022-11-20T08:46:21;8.23;;;4.70;;
35699;SDS011;21818;51.078;12.108;2022-11-20T08:48:48;8.85;;;4.90;;
35699;SDS011;21818;51.078;12.108;2022-11-20T08:51:13;8.05;;;4.60;;
35699;SDS011;21818;51.078;12.108;2022-11-20T08:53:40;9.23;;;5.18;;
35699;SDS011;21818;51.078;12.108;2022-11-20T08:56:06;7.72;;;4.75;;
35699;SDS011;21818;51.078;12.108;2022-11-20T08:58:32;8.23;;;4.28;;
35699;SDS011;21818;51.078;12.108;2022-11-20T09:00:57;7.30;;;4.43;;
35699;SDS011;21818;51.078;12.108;2022-11-20T09:03:23;8.80;;;4.40;;
35699;SDS011;21818;51.078;12.108;2022-11-20T09:05:55;7.30;;;4.60;;
35699;SDS011;21818;51.078;12.108;2022-11-20T09:08:25;8.55;;;4.85;;
35699;SDS011;21818;51.078;12.108;2022-11-20T09:10:55;7.72;;;4.32;;
35699;SDS011;21818;51.078;12.108;2022-11-20T09:13:21;7.85;;;4.32;;
35699;SDS011;21818;51.078;12.108;2022-11-20T09:15:52;8.25;;;3.95;;
35699;SDS011;21818;51.078;12.108;2022-11-20T09:18:22;7.25;;;4.15;;
35699;SDS011;21818;51.078;12.108;2022-11-20T09:20:49;9.52;;;4.25;;
35699;SDS011;21818;51.078;12.108;2022-11-20T09:23:15;6.47;;;4.00;;
35699;SDS011;21818;51.078;12.108;2022-11-20T09:25:41;6.85;;;4.15;;
35699;SDS011;21818;51.078;12.108;2022-11-20T09:28:07;7.40;;;4.57;;
35699;SDS011;21818;51.078;12.108;2022-11-20T09:30:33;7.78;;;4.35;;
35699;SDS011;21818;51.078;12.108;2022-11-20T09:32:58;7.82;;;4.60;;
35699;SDS011;21818;51.078;12.108;2022-11-20T09:35:24;5.38;;;3.50;;
35699;SDS011;21818;51.078;12.108;2022-11-20T09:37:49;7.88;;;4.03;;
35699;SDS011;21818;51.078;12.108;2022-11-20T09:40:18;7.53;;;4.03;;
35699;SDS011;21818;51.078;12.108;2022-11-20T09:42:57;4.90;;;3.22;;
35699;SDS011;21818;51.078;12.108;2022-11-20T09:54:18;5.65;;;3.72;;
35699;SDS011;21818;51.078;12.108;2022-11-20T09:56:50;6.53;;;3.90;;
35699;SDS011;21818;51.078;12.108;2022-11-20T10:02:29;6.78;;;3.95;;
35699;SDS011;21818;51.078;12.108;2022-11-20T10:05:04;6.07;;;3.55;;
35699;SDS011;21818;51.078;12.108;2022-11-20T10:07:37;6.70;;;4.05;;
35699;SDS011;21818;51.078;12.108;2022-11-20T10:27:24;5.63;;;3.35;;
35699;SDS011;21818;51.078;12.108;2022-11-20T10:30:06;6.32;;;3.47;;
35699;SDS011;21818;51.078;12.108;2022-11-20T10:32:36;5.72;;;4.07;;
35699;SDS011;21818;51.078;12.108;2022-11-20T10:38:02;6.45;;;3.75;;
35699;SDS011;21818;51.078;12.108;2022-11-20T10:40:38;7.38;;;4.55;;
35699;SDS011;21818;51.078;12.108;2022-11-20T10:43:16;6.60;;;3.67;;
35699;SDS011;21818;51.078;12.108;2022-11-20T10:45:50;5.35;;;3.28;;
35699;SDS011;21818;51.078;12.108;2022-11-20T10:48:23;6.28;;;3.92;;
35699;SDS011;21818;51.078;12.108;2022-11-20T10:53:44;6.43;;;3.90;;
35699;SDS011;21818;51.078;12.108;2022-11-20T11:02:15;6.90;;;3.58;;
35699;SDS011;21818;51.078;12.108;2022-11-20T11:04:46;6.72;;;3.58;;
35699;SDS011;21818;51.078;12.108;2022-11-20T11:12:44;5.72;;;3.58;;
35699;SDS011;21818;51.078;12.108;2022-11-20T11:15:24;6.22;;;3.65;;
35699;SDS011;21818;51.078;12.108;2022-11-20T11:17:52;7.27;;;3.57;;
35699;SDS011;21818;51.078;12.108;2022-11-20T11:20:21;5.22;;;3.10;;
35699;SDS011;21818;51.078;12.108;2022-11-20T11:22:52;5.97;;;3.42;;
35699;SDS011;21818;51.078;12.108;2022-11-20T11:27:49;5.55;;;3.33;;
35699;SDS011;21818;51.078;12.108;2022-11-20T11:30:16;5.57;;;3.20;;
35699;SDS011;21818;51.078;12.108;2022-11-20T11:32:43;5.78;;;3.15;;
35699;SDS011;21818;51.078;12.108;2022-11-20T11:35:26;6.18;;;3.80;;
35699;SDS011;21818;51.078;12.108;2022-11-20T11:37:54;5.38;;;3.55;;
35699;SDS011;21818;51.078;12.108;2022-11-20T11:40:28;5.22;;;2.97;;
35699;SDS011;21818;51.078;12.108;2022-11-20T11:42:57;4.63;;;3.35;;
35699;SDS011;21818;51.078;12.108;2022-11-20T11:45:26;5.10;;;3.10;;
35699;SDS011;21818;51.078;12.108;2022-11-20T11:47:52;5.82;;;3.13;;
35699;SDS011;21818;51.078;12.108;2022-11-20T11:50:24;5.78;;;3.63;;
35699;SDS011;21818;51.078;12.108;2022-11-20T11:53:12;5.75;;;3.40;;
35699;SDS011;21818;51.078;12.108;2022-11-20T12:01:04;4.95;;;2.90;;
35699;SDS011;21818;51.078;12.108;2022-11-20T12:03:55;6.25;;;3.78;;
35699;SDS011;21818;51.078;12.108;2022-11-20T12:06:24;5.25;;;3.15;;
35699;SDS011;21818;51.078;12.108;2022-11-20T12:08:53;5.90;;;3.33;;
35699;SDS011;21818;51.078;12.108;2022-11-20T12:13:57;6.57;;;3.40;;
35699;SDS011;21818;51.078;12.108;2022-11-20T12:16:37;5.47;;;3.28;;
35699;SDS011;21818;51.078;12.108;2022-11-20T12:19:07;4.75;;;2.90;;
35699;SDS011;21818;51.078;12.108;2022-11-20T12:21:43;5.13;;;3.40;;
35699;SDS011;21818;51.078;12.108;2022-11-20T12:30:20;4.53;;;2.67;;
35699;SDS011;21818;51.078;12.108;2022-11-20T12:41:15;4.80;;;3.10;;
35699;SDS011;21818;51.078;12.108;2022-11-20T12:53:18;5.15;;;2.95;;
35699;SDS011;21818;51.078;12.108;2022-11-20T12:56:13;5.95;;;3.25;;
35699;SDS011;21818;51.078;12.108;2022-11-20T12:59:00;4.22;;;2.85;;
35699;SDS011;21818;51.078;12.108;2022-11-20T13:01:40;4.40;;;2.90;;
35699;SDS011;21818;51.078;12.108;2022-11-20T13:06:58;4.72;;;2.83;;
35699;SDS011;21818;51.078;12.108;2022-11-20T13:09:30;4.72;;;2.75;;
35699;SDS011;21818;51.078;12.108;2022-11-20T13:17:55;6.30;;;3.53;;
35699;SDS011;21818;51.078;12.108;2022-11-20T13:20:24;5.72;;;3.33;;
35699;SDS011;21818;51.078;12.108;2022-11-20T13:22:56;4.55;;;2.80;;
35699;SDS011;21818;51.078;12.108;2022-11-20T13:25:33;5.07;;;2.97;;
35699;SDS011;21818;51.078;12.108;2022-11-20T13:28:43;5.20;;;2.95;;
35699;SDS011;21818;51.078;12.108;2022-11-20T13:30:54;4.72;;;3.08;;
35699;SDS011;21818;51.078;12.108;2022-11-20T13:38:27;4.63;;;3.35;;
35699;SDS011;21818;51.078;12.108;2022-11-20T13:41:07;6.55;;;4.03;;
35699;SDS011;21818;51.078;12.108;2022-11-20T13:43:51;4.72;;;3.45;;
35699;SDS011;21818;51.078;12.108;2022-11-20T13:46:17;6.85;;;3.85;;
35699;SDS011;21818;51.078;12.108;2022-11-20T13:48:49;5.47;;;3.65;;
35699;SDS011;21818;51.078;12.108;2022-11-20T13:59:36;5.05;;;3.20;;
35699;SDS011;21818;51.078;12.108;2022-11-20T14:02:15;4.18;;;2.65;;
35699;SDS011;21818;51.078;12.108;2022-11-20T14:04:49;5.72;;;4.00;;
35699;SDS011;21818;51.078;12.108;2022-11-20T14:07:17;5.22;;;3.63;;
35699;SDS011;21818;51.078;12.108;2022-11-20T14:09:52;5.65;;;3.00;;
35699;SDS011;21818;51.078;12.108;2022-11-20T14:12:23;5.03;;;2.95;;
35699;SDS011;21818;51.078;12.108;2022-11-20T14:14:56;4.38;;;3.17;;
35699;SDS011;21818;51.078;12.108;2022-11-20T14:17:23;5.68;;;3.15;;
35699;SDS011;21818;51.078;12.108;2022-11-20T14:19:50;4.82;;;3.25;;
35699;SDS011;21818;51.078;12.108;2022-11-20T14:22:24;4.82;;;3.33;;
35699;SDS011;21818;51.078;12.108;2022-11-20T14:27:39;5.07;;;3.22;;
35699;SDS011;21818;51.078;12.108;2022-11-20T14:30:14;6.35;;;3.80;;
35699;SDS011;21818;51.078;12.108;2022-11-20T14:32:47;5.38;;;3.38;;
35699;SDS011;21818;51.078;12.108;2022-11-20T14:37:48;5.53;;;3.42;;
35699;SDS011;21818;51.078;12.108;2022-11-20T14:40:21;5.53;;;3.13;;
35699;SDS011;21818;51.078;12.108;2022-11-20T14:43:01;4.90;;;3.22;;
35699;SDS011;21818;51.078;12.108;2022-11-20T14:45:40;5.72;;;3.28;;
35699;SDS011;21818;51.078;12.108;2022-11-20T14:48:08;6.68;;;4.07;;
35699;SDS011;21818;51.078;12.108;2022-11-20T14:50:35;5.15;;;3.38;;
35699;SDS011;21818;51.078;12.108;2022-11-20T14:53:03;4.65;;;3.28;;
35699;SDS011;21818;51.078;12.108;2022-11-20T14:55:33;5.18;;;3.03;;
35699;SDS011;21818;51.078;12.108;2022-11-20T14:58:06;4.72;;;2.90;;
35699;SDS011;21818;51.078;12.108;2022-11-20T15:00:53;4.70;;;2.50;;
35699;SDS011;21818;51.078;12.108;2022-11-20T15:03:20;5.65;;;3.55;;
35699;SDS011;21818;51.078;12.108;2022-11-20T15:05:47;3.75;;;2.60;;
35699;SDS011;21818;51.078;12.108;2022-11-20T15:08:13;3.83;;;2.75;;
35699;SDS011;21818;51.078;12.108;2022-11-20T15:10:44;4.20;;;2.63;;
35699;SDS011;21818;51.078;12.108;2022-11-20T15:13:12;4.60;;;2.90;;
35699;SDS011;21818;51.078;12.108;2022-11-20T15:15:50;5.10;;;3.25;;
35699;SDS011;21818;51.078;12.108;2022-11-20T15:18:20;6.53;;;3.35;;
35699;SDS011;21818;51.078;12.108;2022-11-20T15:20:49;4.72;;;2.95;;
35699;SDS011;21818;51.078;12.108;2022-11-20T15:23:16;4.68;;;2.75;;
35699;SDS011;21818;51.078;12.108;2022-11-20T15:25:46;5.07;;;3.23;;
35699;SDS011;21818;51.078;12.108;2022-11-20T15:28:17;5.28;;;3.05;;
35699;SDS011;21818;51.078;12.108;2022-11-20T15:30:44;5.30;;;3.20;;
35699;SDS011;21818;51.078;12.108;2022-11-20T15:33:10;5.15;;;2.95;;
35699;SDS011;21818;51.078;12.108;2022-11-20T15:35:36;5.18;;;2.85;;
35699;SDS011;21818;51.078;12.108;2022-11-20T15:38:02;6.68;;;3.38;;
35699;SDS011;21818;51.078;12.108;2022-11-20T15:40:27;4.45;;;2.95;;
35699;SDS011;21818;51.078;12.108;2022-11-20T15:42:53;5.95;;;3.70;;
35699;SDS011;21818;51.078;12.108;2022-11-20T15:45:28;5.18;;;3.13;;
35699;SDS011;21818;51.078;12.108;2022-11-20T15:47:57;5.25;;;2.80;;
35699;SDS011;21818;51.078;12.108;2022-11-20T15:50:25;3.83;;;2.50;;
35699;SDS011;21818;51.078;12.108;2022-11-20T15:52:56;5.05;;;3.58;;
35699;SDS011;21818;51.078;12.108;2022-11-20T15:55:21;6.00;;;2.75;;
35699;SDS011;21818;51.078;12.108;2022-11-20T15:57:47;4.35;;;2.70;;
35699;SDS011;21818;51.078;12.108;2022-11-20T16:00:13;4.65;;;2.83;;
35699;SDS011;21818;51.078;12.108;2022-11-20T16:02:39;4.50;;;2.75;;
35699;SDS011;21818;51.078;12.108;2022-11-20T16:05:05;2.63;;;2.05;;
35699;SDS011;21818;51.078;12.108;2022-11-20T16:07:36;3.20;;;2.58;;
35699;SDS011;21818;51.078;12.108;2022-11-20T16:10:02;3.30;;;2.13;;
35699;SDS011;21818;51.078;12.108;2022-11-20T16:12:28;4.72;;;2.55;;
35699;SDS011;21818;51.078;12.108;2022-11-20T16:15:12;4.97;;;2.70;;
35699;SDS011;21818;51.078;12.108;2022-11-20T16:17:56;3.17;;;1.85;;
35699;SDS011;21818;51.078;12.108;2022-11-20T16:20:21;6.85;;;3.45;;
35699;SDS011;21818;51.078;12.108;2022-11-20T16:22:47;3.75;;;2.20;;
35699;SDS011;21818;51.078;12.108;2022-11-20T16:25:13;7.18;;;3.08;;
35699;SDS011;21818;51.078;12.108;2022-11-20T16:27:38;5.20;;;2.97;;
35699;SDS011;21818;51.078;12.108;2022-11-20T16:30:04;4.95;;;2.67;;
35699;SDS011;21818;51.078;12.108;2022-11-20T16:32:30;5.95;;;3.55;;